sensor_id;sensor_type;location;lat;lon;timestamp;pressure;altitude;pressure_sealevel;temperature;humidity
62976;BME280;49071;0.000;0.000;2023-12-29T00:01:37;100440.31;;;18.19;
62976;BME280;49071;0.000;0.000;2023-12-29T00:04:37;100436.97;;;18.17;
62976;BME280;49071;0.000;0.000;2023-12-29T00:07:38;100432.81;;;18.15;
62976;BME280;49071;0.000;0.000;2023-12-29T00:10:38;100430.19;;;18.15;
62976;BME280;49071;0.000;0.000;2023-12-29T00:13:38;100433.91;;;18.12;
62976;BME280;49071;0.000;0.000;2023-12-29T00:16:38;100426.16;;;18.11;
62976;BME280;49071;0.000;0.000;2023-12-29T00:19:39;100425.44;;;18.09;
62976;BME280;49071;0.000;0.000;2023-12-29T00:22:39;100425.72;;;18.06;
62976;BME280;49071;0.000;0.000;2023-12-29T00:25:39;100436.19;;;18.06;
62976;BME280;49071;0.000;0.000;2023-12-29T00:28:39;100424.19;;;18.03;
62976;BME280;49071;0.000;0.000;2023-12-29T00:31:40;100422.50;;;18.02;
62976;BME280;49071;0.000;0.000;2023-12-29T00:34:40;100422.63;;;18.01;
62976;BME280;49071;0.000;0.000;2023-12-29T00:37:41;100421.88;;;17.99;
62976;BME280;49071;0.000;0.000;2023-12-29T00:40:41;100423.69;;;17.98;
62976;BME280;49071;0.000;0.000;2023-12-29T00:43:41;100417.72;;;17.96;
62976;BME280;49071;0.000;0.000;2023-12-29T00:46:41;100410.84;;;17.95;
62976;BME280;49071;0.000;0.000;2023-12-29T00:49:41;100405.84;;;17.92;
62976;BME280;49071;0.000;0.000;2023-12-29T00:52:41;100401.56;;;17.91;
62976;BME280;49071;0.000;0.000;2023-12-29T00:55:42;100393.84;;;17.90;
62976;BME280;49071;0.000;0.000;2023-12-29T00:58:42;100385.28;;;17.88;
62976;BME280;49071;0.000;0.000;2023-12-29T01:01:42;100384.47;;;17.88;
62976;BME280;49071;0.000;0.000;2023-12-29T01:04:44;100390.78;;;17.85;
62976;BME280;49071;0.000;0.000;2023-12-29T01:07:44;100383.84;;;17.84;
62976;BME280;49071;0.000;0.000;2023-12-29T01:10:44;100385.66;;;17.84;
62976;BME280;49071;0.000;0.000;2023-12-29T01:13:45;100370.19;;;17.81;
62976;BME280;49071;0.000;0.000;2023-12-29T01:16:45;100373.88;;;17.78;
62976;BME280;49071;0.000;0.000;2023-12-29T01:19:45;100371.28;;;17.78;
62976;BME280;49071;0.000;0.000;2023-12-29T01:22:45;100370.59;;;17.76;
62976;BME280;49071;0.000;0.000;2023-12-29T01:25:45;100374.16;;;17.75;
62976;BME280;49071;0.000;0.000;2023-12-29T01:28:46;100365.59;;;17.73;
62976;BME280;49071;0.000;0.000;2023-12-29T01:31:46;100370.81;;;17.73;
62976;BME280;49071;0.000;0.000;2023-12-29T01:34:46;100366.66;;;17.71;
62976;BME280;49071;0.000;0.000;2023-12-29T01:37:46;100356.34;;;17.69;
62976;BME280;49071;0.000;0.000;2023-12-29T01:40:46;100356.44;;;17.68;
62976;BME280;49071;0.000;0.000;2023-12-29T01:46:56;100354.31;;;17.73;
62976;BME280;49071;0.000;0.000;2023-12-29T01:49:58;100350.22;;;17.80;
62976;BME280;49071;0.000;0.000;2023-12-29T01:52:58;100355.69;;;17.88;
62976;BME280;49071;0.000;0.000;2023-12-29T01:55:59;100347.28;;;17.93;
62976;BME280;49071;0.000;0.000;2023-12-29T01:59:00;100341.50;;;18.01;
62976;BME280;49071;0.000;0.000;2023-12-29T02:02:00;100338.81;;;18.12;
62976;BME280;49071;0.000;0.000;2023-12-29T02:05:01;100316.28;;;18.20;
62976;BME280;49071;0.000;0.000;2023-12-29T02:08:01;100313.59;;;18.31;
62976;BME280;49071;0.000;0.000;2023-12-29T02:11:02;100310.06;;;18.41;
62976;BME280;49071;0.000;0.000;2023-12-29T02:14:02;100305.59;;;18.52;
62976;BME280;49071;0.000;0.000;2023-12-29T02:20:06;100289.13;;;18.71;
62976;BME280;49071;0.000;0.000;2023-12-29T02:23:07;100296.19;;;18.79;
62976;BME280;49071;0.000;0.000;2023-12-29T02:26:08;100287.81;;;18.85;
62976;BME280;49071;0.000;0.000;2023-12-29T02:29:09;100295.47;;;18.98;
62976;BME280;49071;0.000;0.000;2023-12-29T02:32:13;100281.25;;;19.00;
62976;BME280;49071;0.000;0.000;2023-12-29T02:35:26;100282.09;;;19.01;
62976;BME280;49071;0.000;0.000;2023-12-29T02:38:27;100290.09;;;18.99;
62976;BME280;49071;0.000;0.000;2023-12-29T02:41:29;100274.50;;;18.98;
62976;BME280;49071;0.000;0.000;2023-12-29T02:44:29;100278.47;;;18.92;
62976;BME280;49071;0.000;0.000;2023-12-29T02:47:29;100271.13;;;18.86;
62976;BME280;49071;0.000;0.000;2023-12-29T02:50:29;100253.16;;;18.82;
62976;BME280;49071;0.000;0.000;2023-12-29T02:53:29;100255.22;;;18.78;
62976;BME280;49071;0.000;0.000;2023-12-29T02:56:30;100260.03;;;18.74;
62976;BME280;49071;0.000;0.000;2023-12-29T02:59:30;100249.09;;;18.69;
62976;BME280;49071;0.000;0.000;2023-12-29T03:02:30;100263.44;;;18.65;
62976;BME280;49071;0.000;0.000;2023-12-29T03:05:30;100274.44;;;18.59;
62976;BME280;49071;0.000;0.000;2023-12-29T03:08:30;100269.47;;;18.56;
62976;BME280;49071;0.000;0.000;2023-12-29T03:11:31;100258.53;;;18.51;
62976;BME280;49071;0.000;0.000;2023-12-29T03:14:32;100252.88;;;18.46;
62976;BME280;49071;0.000;0.000;2023-12-29T03:17:32;100258.38;;;18.43;
62976;BME280;49071;0.000;0.000;2023-12-29T03:20:32;100241.25;;;18.39;
62976;BME280;49071;0.000;0.000;2023-12-29T03:23:32;100234.63;;;18.35;
62976;BME280;49071;0.000;0.000;2023-12-29T03:26:32;100231.44;;;18.32;
62976;BME280;49071;0.000;0.000;2023-12-29T03:29:33;100245.63;;;18.29;
62976;BME280;49071;0.000;0.000;2023-12-29T03:32:33;100233.75;;;18.25;
62976;BME280;49071;0.000;0.000;2023-12-29T03:35:33;100219.38;;;18.20;
62976;BME280;49071;0.000;0.000;2023-12-29T03:38:33;100223.09;;;18.17;
62976;BME280;49071;0.000;0.000;2023-12-29T03:41:33;100213.84;;;18.14;
62976;BME280;49071;0.000;0.000;2023-12-29T03:44:33;100208.88;;;18.11;
62976;BME280;49071;0.000;0.000;2023-12-29T03:47:34;100209.13;;;18.08;
62976;BME280;49071;0.000;0.000;2023-12-29T03:50:35;100206.75;;;18.05;
62976;BME280;49071;0.000;0.000;2023-12-29T03:53:36;100213.22;;;18.01;
62976;BME280;49071;0.000;0.000;2023-12-29T03:56:36;100211.53;;;18.00;
62976;BME280;49071;0.000;0.000;2023-12-29T03:59:36;100202.16;;;17.97;
62976;BME280;49071;0.000;0.000;2023-12-29T04:02:37;100210.38;;;17.93;
62976;BME280;49071;0.000;0.000;2023-12-29T04:05:37;100212.31;;;17.91;
62976;BME280;49071;0.000;0.000;2023-12-29T04:08:38;100196.72;;;17.89;
62976;BME280;49071;0.000;0.000;2023-12-29T04:11:38;100205.41;;;17.90;
62976;BME280;49071;0.000;0.000;2023-12-29T04:14:38;100203.50;;;17.92;
62976;BME280;49071;0.000;0.000;2023-12-29T04:17:38;100202.16;;;17.97;
62976;BME280;49071;0.000;0.000;2023-12-29T04:20:38;100193.94;;;18.02;
62976;BME280;49071;0.000;0.000;2023-12-29T04:23:39;100196.59;;;18.11;
62976;BME280;49071;0.000;0.000;2023-12-29T04:26:41;100192.38;;;18.19;
62976;BME280;49071;0.000;0.000;2023-12-29T04:29:42;100183.75;;;18.28;
62976;BME280;49071;0.000;0.000;2023-12-29T04:32:43;100186.41;;;18.38;
62976;BME280;49071;0.000;0.000;2023-12-29T04:35:43;100182.03;;;18.47;
62976;BME280;49071;0.000;0.000;2023-12-29T04:38:43;100168.94;;;18.57;
62976;BME280;49071;0.000;0.000;2023-12-29T04:41:43;100164.28;;;18.70;
62976;BME280;49071;0.000;0.000;2023-12-29T04:44:43;100163.38;;;18.80;
62976;BME280;49071;0.000;0.000;2023-12-29T04:47:44;100169.47;;;18.90;
62976;BME280;49071;0.000;0.000;2023-12-29T04:50:44;100162.59;;;18.98;
62976;BME280;49071;0.000;0.000;2023-12-29T04:53:44;100154.75;;;19.07;
62976;BME280;49071;0.000;0.000;2023-12-29T04:56:44;100144.53;;;19.14;
62976;BME280;49071;0.000;0.000;2023-12-29T04:59:44;100140.00;;;19.16;
62976;BME280;49071;0.000;0.000;2023-12-29T05:02:45;100136.66;;;19.14;
62976;BME280;49071;0.000;0.000;2023-12-29T05:05:45;100137.91;;;19.10;
62976;BME280;49071;0.000;0.000;2023-12-29T05:08:45;100138.19;;;19.07;
62976;BME280;49071;0.000;0.000;2023-12-29T05:11:45;100143.16;;;19.01;
62976;BME280;49071;0.000;0.000;2023-12-29T05:14:45;100134.03;;;18.95;
62976;BME280;49071;0.000;0.000;2023-12-29T05:17:45;100135.53;;;18.88;
62976;BME280;49071;0.000;0.000;2023-12-29T05:20:45;100129.03;;;18.83;
62976;BME280;49071;0.000;0.000;2023-12-29T05:23:46;100129.41;;;18.78;
62976;BME280;49071;0.000;0.000;2023-12-29T05:26:47;100121.97;;;18.74;
62976;BME280;49071;0.000;0.000;2023-12-29T05:29:47;100120.72;;;18.69;
62976;BME280;49071;0.000;0.000;2023-12-29T05:32:47;100124.59;;;18.65;
62976;BME280;49071;0.000;0.000;2023-12-29T05:35:47;100107.59;;;18.59;
62976;BME280;49071;0.000;0.000;2023-12-29T05:38:48;100115.03;;;18.54;
62976;BME280;49071;0.000;0.000;2023-12-29T05:41:48;100113.66;;;18.50;
62976;BME280;49071;0.000;0.000;2023-12-29T05:44:48;100120.25;;;18.45;
62976;BME280;49071;0.000;0.000;2023-12-29T05:47:48;100123.28;;;18.41;
62976;BME280;49071;0.000;0.000;2023-12-29T05:50:48;100109.75;;;18.36;
62976;BME280;49071;0.000;0.000;2023-12-29T05:53:48;100117.03;;;18.32;
62976;BME280;49071;0.000;0.000;2023-12-29T05:56:49;100110.44;;;18.28;
62976;BME280;49071;0.000;0.000;2023-12-29T05:59:49;100115.94;;;18.25;
62976;BME280;49071;0.000;0.000;2023-12-29T06:02:49;100111.06;;;18.21;
62976;BME280;49071;0.000;0.000;2023-12-29T06:05:49;100121.84;;;18.18;
62976;BME280;49071;0.000;0.000;2023-12-29T06:08:49;100109.94;;;18.14;
62976;BME280;49071;0.000;0.000;2023-12-29T06:11:50;100115.59;;;18.10;
62976;BME280;49071;0.000;0.000;2023-12-29T06:14:50;100101.94;;;18.06;
62976;BME280;49071;0.000;0.000;2023-12-29T06:17:50;100106.06;;;18.09;
62976;BME280;49071;0.000;0.000;2023-12-29T06:20:50;100119.88;;;18.11;
62976;BME280;49071;0.000;0.000;2023-12-29T06:23:50;100112.44;;;18.16;
62976;BME280;49071;0.000;0.000;2023-12-29T06:26:51;100106.81;;;18.20;
62976;BME280;49071;0.000;0.000;2023-12-29T06:29:51;100111.13;;;18.30;
62976;BME280;49071;0.000;0.000;2023-12-29T06:32:51;100117.47;;;18.37;
62976;BME280;49071;0.000;0.000;2023-12-29T06:35:52;100115.88;;;18.46;
62976;BME280;49071;0.000;0.000;2023-12-29T06:38:52;100110.66;;;18.55;
62976;BME280;49071;0.000;0.000;2023-12-29T06:41:52;100104.44;;;18.65;
62976;BME280;49071;0.000;0.000;2023-12-29T06:44:52;100101.00;;;18.74;
62976;BME280;49071;0.000;0.000;2023-12-29T06:47:53;100099.22;;;18.84;
62976;BME280;49071;0.000;0.000;2023-12-29T06:50:53;100104.38;;;18.95;
62976;BME280;49071;0.000;0.000;2023-12-29T06:53:53;100100.78;;;19.05;
62976;BME280;49071;0.000;0.000;2023-12-29T06:56:54;100091.94;;;19.15;
62976;BME280;49071;0.000;0.000;2023-12-29T06:59:54;100102.41;;;19.25;
62976;BME280;49071;0.000;0.000;2023-12-29T07:02:54;100103.91;;;19.36;
62976;BME280;49071;0.000;0.000;2023-12-29T07:05:54;100109.56;;;19.51;
62976;BME280;49071;0.000;0.000;2023-12-29T07:08:54;100109.56;;;19.60;
62976;BME280;49071;0.000;0.000;2023-12-29T07:11:55;100096.03;;;19.74;
62976;BME280;49071;0.000;0.000;2023-12-29T07:14:55;100092.09;;;19.87;
62976;BME280;49071;0.000;0.000;2023-12-29T07:17:55;100092.22;;;19.95;
62976;BME280;49071;0.000;0.000;2023-12-29T07:20:55;100072.41;;;20.00;
62976;BME280;49071;0.000;0.000;2023-12-29T07:23:55;100084.03;;;20.07;
62976;BME280;49071;0.000;0.000;2023-12-29T07:26:56;100096.41;;;20.15;
62976;BME280;49071;0.000;0.000;2023-12-29T07:29:56;100108.72;;;20.14;
62976;BME280;49071;0.000;0.000;2023-12-29T07:32:57;100108.03;;;20.12;
62976;BME280;49071;0.000;0.000;2023-12-29T07:35:57;100115.25;;;20.01;
62976;BME280;49071;0.000;0.000;2023-12-29T07:38:57;100109.09;;;19.92;
62976;BME280;49071;0.000;0.000;2023-12-29T07:41:57;100115.31;;;19.82;
62976;BME280;49071;0.000;0.000;2023-12-29T07:44:57;100110.34;;;19.70;
62976;BME280;49071;0.000;0.000;2023-12-29T07:47:58;100115.50;;;19.62;
62976;BME280;49071;0.000;0.000;2023-12-29T07:50:58;100120.47;;;19.56;
62976;BME280;49071;0.000;0.000;2023-12-29T07:54:03;100129.19;;;19.47;
62976;BME280;49071;0.000;0.000;2023-12-29T07:57:03;100122.16;;;19.47;
62976;BME280;49071;0.000;0.000;2023-12-29T08:00:03;100121.59;;;19.53;
62976;BME280;49071;0.000;0.000;2023-12-29T08:03:06;100133.88;;;19.62;
62976;BME280;49071;0.000;0.000;2023-12-29T08:06:07;100131.09;;;19.73;
62976;BME280;49071;0.000;0.000;2023-12-29T08:09:07;100132.88;;;19.82;
62976;BME280;49071;0.000;0.000;2023-12-29T08:12:07;100130.22;;;19.91;
62976;BME280;49071;0.000;0.000;2023-12-29T08:15:08;100119.97;;;19.97;
62976;BME280;49071;0.000;0.000;2023-12-29T08:18:08;100113.19;;;20.04;
62976;BME280;49071;0.000;0.000;2023-12-29T08:21:15;100121.84;;;20.14;
62976;BME280;49071;0.000;0.000;2023-12-29T08:24:15;100135.34;;;20.19;
62976;BME280;49071;0.000;0.000;2023-12-29T08:27:23;100134.16;;;20.14;
62976;BME280;49071;0.000;0.000;2023-12-29T08:30:25;100135.69;;;20.07;
62976;BME280;49071;0.000;0.000;2023-12-29T08:33:25;100140.84;;;19.99;
62976;BME280;49071;0.000;0.000;2023-12-29T08:36:25;100127.75;;;19.90;
62976;BME280;49071;0.000;0.000;2023-12-29T08:39:26;100130.25;;;19.82;
62976;BME280;49071;0.000;0.000;2023-12-29T08:42:26;100134.41;;;19.75;
62976;BME280;49071;0.000;0.000;2023-12-29T08:45:27;100134.13;;;19.68;
62976;BME280;49071;0.000;0.000;2023-12-29T08:48:28;100128.34;;;19.65;
62976;BME280;49071;0.000;0.000;2023-12-29T08:51:28;100143.94;;;19.66;
62976;BME280;49071;0.000;0.000;2023-12-29T08:54:28;100141.47;;;19.65;
62976;BME280;49071;0.000;0.000;2023-12-29T08:57:28;100135.50;;;19.63;
62976;BME280;49071;0.000;0.000;2023-12-29T09:00:29;100145.88;;;19.55;
62976;BME280;49071;0.000;0.000;2023-12-29T09:03:30;100146.31;;;19.51;
62976;BME280;49071;0.000;0.000;2023-12-29T09:06:30;100141.22;;;19.49;
62976;BME280;49071;0.000;0.000;2023-12-29T09:09:30;100145.31;;;19.52;
62976;BME280;49071;0.000;0.000;2023-12-29T09:12:30;100145.19;;;19.53;
62976;BME280;49071;0.000;0.000;2023-12-29T09:15:30;100156.94;;;19.59;
62976;BME280;49071;0.000;0.000;2023-12-29T09:18:31;100141.47;;;19.65;
62976;BME280;49071;0.000;0.000;2023-12-29T09:21:31;100145.28;;;19.70;
62976;BME280;49071;0.000;0.000;2023-12-29T09:24:31;100156.50;;;19.82;
62976;BME280;49071;0.000;0.000;2023-12-29T09:27:31;100153.31;;;19.88;
62976;BME280;49071;0.000;0.000;2023-12-29T09:30:31;100153.16;;;19.98;
62976;BME280;49071;0.000;0.000;2023-12-29T09:33:32;100142.31;;;20.11;
62976;BME280;49071;0.000;0.000;2023-12-29T09:36:32;100121.28;;;20.20;
62976;BME280;49071;0.000;0.000;2023-12-29T09:39:32;100117.66;;;20.21;
62976;BME280;49071;0.000;0.000;2023-12-29T09:42:33;100124.50;;;20.31;
62976;BME280;49071;0.000;0.000;2023-12-29T09:45:36;100117.50;;;20.32;
62976;BME280;49071;0.000;0.000;2023-12-29T09:48:37;100110.84;;;20.28;
62976;BME280;49071;0.000;0.000;2023-12-29T09:51:38;100125.72;;;20.20;
62976;BME280;49071;0.000;0.000;2023-12-29T09:54:39;100117.88;;;20.10;
62976;BME280;49071;0.000;0.000;2023-12-29T09:57:39;100119.63;;;20.10;
62976;BME280;49071;0.000;0.000;2023-12-29T10:00:40;100133.50;;;20.02;
62976;BME280;49071;0.000;0.000;2023-12-29T10:03:40;100140.03;;;19.98;
62976;BME280;49071;0.000;0.000;2023-12-29T10:06:41;100133.38;;;19.94;
62976;BME280;49071;0.000;0.000;2023-12-29T10:09:45;100129.41;;;19.91;
62976;BME280;49071;0.000;0.000;2023-12-29T10:12:47;100128.03;;;19.87;
62976;BME280;49071;0.000;0.000;2023-12-29T10:15:55;100131.59;;;19.86;
62976;BME280;49071;0.000;0.000;2023-12-29T10:22:17;100130.81;;;19.76;
62976;BME280;49071;0.000;0.000;2023-12-29T10:25:22;100129.69;;;19.69;
62976;BME280;49071;0.000;0.000;2023-12-29T10:28:22;100128.34;;;19.65;
62976;BME280;49071;0.000;0.000;2023-12-29T10:31:23;100127.22;;;19.58;
62976;BME280;49071;0.000;0.000;2023-12-29T10:34:23;100128.09;;;19.49;
62976;BME280;49071;0.000;0.000;2023-12-29T10:37:31;100134.56;;;19.45;
62976;BME280;49071;0.000;0.000;2023-12-29T10:40:31;100135.13;;;19.39;
62976;BME280;49071;0.000;0.000;2023-12-29T10:43:32;100123.97;;;19.37;
62976;BME280;49071;0.000;0.000;2023-12-29T10:46:32;100124.91;;;19.36;
62976;BME280;49071;0.000;0.000;2023-12-29T10:49:32;100116.75;;;19.39;
62976;BME280;49071;0.000;0.000;2023-12-29T10:52:32;100101.28;;;19.46;
62976;BME280;49071;0.000;0.000;2023-12-29T10:55:33;100109.72;;;19.59;
62976;BME280;49071;0.000;0.000;2023-12-29T10:58:33;100092.97;;;19.69;
62976;BME280;49071;0.000;0.000;2023-12-29T11:01:37;100090.50;;;19.77;
62976;BME280;49071;0.000;0.000;2023-12-29T11:04:37;100089.47;;;19.87;
62976;BME280;49071;0.000;0.000;2023-12-29T11:07:38;100074.09;;;20.01;
62976;BME280;49071;0.000;0.000;2023-12-29T11:10:39;100083.72;;;20.10;
62976;BME280;49071;0.000;0.000;2023-12-29T11:13:39;100076.16;;;20.24;
62976;BME280;49071;0.000;0.000;2023-12-29T11:16:40;100082.06;;;20.36;
62976;BME280;49071;0.000;0.000;2023-12-29T11:19:41;100093.22;;;20.47;
62976;BME280;49071;0.000;0.000;2023-12-29T11:22:43;100083.06;;;20.52;
62976;BME280;49071;0.000;0.000;2023-12-29T11:25:44;100085.66;;;20.61;
62976;BME280;49071;0.000;0.000;2023-12-29T11:28:48;100087.41;;;20.70;
62976;BME280;49071;0.000;0.000;2023-12-29T11:31:51;100082.22;;;20.78;
62976;BME280;49071;0.000;0.000;2023-12-29T11:34:53;100093.34;;;20.72;
62976;BME280;49071;0.000;0.000;2023-12-29T11:44:13;100100.19;;;20.65;
62976;BME280;49071;0.000;0.000;2023-12-29T11:47:37;100095.22;;;20.62;
62976;BME280;49071;0.000;0.000;2023-12-29T11:50:37;100092.59;;;20.62;
62976;BME280;49071;0.000;0.000;2023-12-29T11:53:40;100092.19;;;20.57;
62976;BME280;49071;0.000;0.000;2023-12-29T11:56:40;100099.28;;;20.48;
62976;BME280;49071;0.000;0.000;2023-12-29T11:59:47;100094.91;;;20.39;
62976;BME280;49071;0.000;0.000;2023-12-29T12:02:47;100090.53;;;20.30;
62976;BME280;49071;0.000;0.000;2023-12-29T12:05:49;100080.59;;;20.24;
62976;BME280;49071;0.000;0.000;2023-12-29T12:08:49;100091.69;;;20.18;
62976;BME280;49071;0.000;0.000;2023-12-29T12:12:09;100086.72;;;20.15;
62976;BME280;49071;0.000;0.000;2023-12-29T12:18:28;100073.56;;;19.98;
62976;BME280;49071;0.000;0.000;2023-12-29T12:21:28;100079.38;;;19.92;
62976;BME280;49071;0.000;0.000;2023-12-29T12:24:29;100069.31;;;19.88;
62976;BME280;49071;0.000;0.000;2023-12-29T12:27:29;100079.84;;;19.78;
62976;BME280;49071;0.000;0.000;2023-12-29T12:30:30;100066.72;;;19.69;
62976;BME280;49071;0.000;0.000;2023-12-29T12:33:31;100067.28;;;19.63;
62976;BME280;49071;0.000;0.000;2023-12-29T12:36:32;100078.06;;;19.60;
62976;BME280;49071;0.000;0.000;2023-12-29T12:39:41;100071.16;;;19.59;
62976;BME280;49071;0.000;0.000;2023-12-29T12:42:41;100078.59;;;19.63;
62976;BME280;49071;0.000;0.000;2023-12-29T12:45:42;100081.63;;;19.68;
62976;BME280;49071;0.000;0.000;2023-12-29T12:48:43;100081.22;;;19.73;
62976;BME280;49071;0.000;0.000;2023-12-29T12:51:44;100086.59;;;19.81;
62976;BME280;49071;0.000;0.000;2023-12-29T12:54:45;100070.28;;;19.87;
62976;BME280;49071;0.000;0.000;2023-12-29T12:57:45;100075.50;;;19.96;
62976;BME280;49071;0.000;0.000;2023-12-29T13:00:46;100078.19;;;20.04;
62976;BME280;49071;0.000;0.000;2023-12-29T13:03:46;100070.44;;;20.12;
62976;BME280;49071;0.000;0.000;2023-12-29T13:06:47;100070.09;;;20.24;
62976;BME280;49071;0.000;0.000;2023-12-29T13:09:47;100069.22;;;20.33;
62976;BME280;49071;0.000;0.000;2023-12-29T13:12:53;100076.59;;;20.47;
62976;BME280;49071;0.000;0.000;2023-12-29T13:15:54;100079.22;;;20.56;
62976;BME280;49071;0.000;0.000;2023-12-29T13:18:54;100073.63;;;20.59;
62976;BME280;49071;0.000;0.000;2023-12-29T13:21:54;100069.53;;;20.56;
62976;BME280;49071;0.000;0.000;2023-12-29T13:24:57;100074.34;;;20.51;
62976;BME280;49071;0.000;0.000;2023-12-29T13:27:57;100071.34;;;20.47;
62976;BME280;49071;0.000;0.000;2023-12-29T13:30:58;100062.41;;;20.40;
62976;BME280;49071;0.000;0.000;2023-12-29T13:34:06;100051.81;;;20.32;
62976;BME280;49071;0.000;0.000;2023-12-29T13:40:43;100042.25;;;20.14;
62976;BME280;49071;0.000;0.000;2023-12-29T13:43:46;100045.59;;;20.06;
62976;BME280;49071;0.000;0.000;2023-12-29T13:46:48;100049.47;;;20.02;
62976;BME280;49071;0.000;0.000;2023-12-29T13:49:48;100049.78;;;19.99;
62976;BME280;49071;0.000;0.000;2023-12-29T13:52:49;100045.25;;;19.92;
62976;BME280;49071;0.000;0.000;2023-12-29T13:55:50;100045.97;;;19.85;
62976;BME280;49071;0.000;0.000;2023-12-29T13:58:53;100045.31;;;19.83;
62976;BME280;49071;0.000;0.000;2023-12-29T14:01:53;100042.06;;;19.89;
62976;BME280;49071;0.000;0.000;2023-12-29T14:08:21;100046.75;;;20.21;
62976;BME280;49071;0.000;0.000;2023-12-29T14:11:23;100044.31;;;20.37;
62976;BME280;49071;0.000;0.000;2023-12-29T14:14:24;100053.34;;;20.51;
62976;BME280;49071;0.000;0.000;2023-12-29T14:17:27;100051.34;;;20.63;
62976;BME280;49071;0.000;0.000;2023-12-29T14:20:34;100047.91;;;20.79;
62976;BME280;49071;0.000;0.000;2023-12-29T14:23:35;100039.63;;;20.92;
62976;BME280;49071;0.000;0.000;2023-12-29T14:26:36;100035.13;;;21.02;
62976;BME280;49071;0.000;0.000;2023-12-29T14:29:42;100035.47;;;21.07;
62976;BME280;49071;0.000;0.000;2023-12-29T14:32:42;100036.91;;;21.18;
62976;BME280;49071;0.000;0.000;2023-12-29T14:35:43;100032.44;;;21.19;
62976;BME280;49071;0.000;0.000;2023-12-29T14:38:43;100044.28;;;21.15;
62976;BME280;49071;0.000;0.000;2023-12-29T14:41:43;100032.41;;;21.11;
62976;BME280;49071;0.000;0.000;2023-12-29T14:44:45;100017.25;;;21.05;
62976;BME280;49071;0.000;0.000;2023-12-29T14:47:45;100013.94;;;21.03;
62976;BME280;49071;0.000;0.000;2023-12-29T14:50:46;100036.59;;;21.04;
62976;BME280;49071;0.000;0.000;2023-12-29T14:53:47;100045.19;;;21.06;
62976;BME280;49071;0.000;0.000;2023-12-29T14:56:48;100034.16;;;21.03;
62976;BME280;49071;0.000;0.000;2023-12-29T14:59:48;100026.84;;;20.97;
62976;BME280;49071;0.000;0.000;2023-12-29T15:02:48;100035.94;;;20.85;
62976;BME280;49071;0.000;0.000;2023-12-29T15:05:48;100039.88;;;20.81;
62976;BME280;49071;0.000;0.000;2023-12-29T15:08:48;100034.66;;;20.89;
62976;BME280;49071;0.000;0.000;2023-12-29T15:11:49;100034.31;;;20.84;
62976;BME280;49071;0.000;0.000;2023-12-29T15:14:52;100034.91;;;20.78;
62976;BME280;49071;0.000;0.000;2023-12-29T15:17:52;100031.91;;;20.73;
62976;BME280;49071;0.000;0.000;2023-12-29T15:20:53;100039.13;;;20.71;
62976;BME280;49071;0.000;0.000;2023-12-29T15:23:53;100021.69;;;20.70;
62976;BME280;49071;0.000;0.000;2023-12-29T15:26:54;100017.47;;;20.77;
62976;BME280;49071;0.000;0.000;2023-12-29T15:29:54;100014.63;;;20.71;
62976;BME280;49071;0.000;0.000;2023-12-29T15:32:54;100018.53;;;20.67;
62976;BME280;49071;0.000;0.000;2023-12-29T15:35:54;100031.97;;;20.64;
62976;BME280;49071;0.000;0.000;2023-12-29T15:38:55;100019.13;;;20.61;
62976;BME280;49071;0.000;0.000;2023-12-29T15:41:58;100027.94;;;20.43;
62976;BME280;49071;0.000;0.000;2023-12-29T15:44:58;100022.47;;;20.36;
62976;BME280;49071;0.000;0.000;2023-12-29T15:47:58;100020.34;;;20.40;
62976;BME280;49071;0.000;0.000;2023-12-29T15:50:58;100028.34;;;20.48;
62976;BME280;49071;0.000;0.000;2023-12-29T15:53:59;100020.09;;;20.16;
62976;BME280;49071;0.000;0.000;2023-12-29T15:56:59;100035.25;;;20.22;
62976;BME280;49071;0.000;0.000;2023-12-29T15:59:59;100027.47;;;20.30;
62976;BME280;49071;0.000;0.000;2023-12-29T16:02:59;100032.56;;;20.31;
62976;BME280;49071;0.000;0.000;2023-12-29T16:06:00;100034.38;;;20.31;
62976;BME280;49071;0.000;0.000;2023-12-29T16:09:01;100044.59;;;20.34;
62976;BME280;49071;0.000;0.000;2023-12-29T16:12:01;100029.72;;;20.25;
62976;BME280;49071;0.000;0.000;2023-12-29T16:15:02;100037.56;;;20.08;
62976;BME280;49071;0.000;0.000;2023-12-29T17:11:46;100045.41;;;20.34;
62976;BME280;49071;0.000;0.000;2023-12-29T17:14:46;100039.28;;;20.43;
62976;BME280;49071;0.000;0.000;2023-12-29T17:17:46;100033.44;;;20.49;
62976;BME280;49071;0.000;0.000;2023-12-29T17:20:46;100021.66;;;20.53;
62976;BME280;49071;0.000;0.000;2023-12-29T17:23:46;100012.28;;;20.50;
62976;BME280;49071;0.000;0.000;2023-12-29T17:26:47;100013.53;;;20.47;
62976;BME280;49071;0.000;0.000;2023-12-29T17:29:47;100015.09;;;20.40;
62976;BME280;49071;0.000;0.000;2023-12-29T17:32:49;100011.25;;;20.34;
62976;BME280;49071;0.000;0.000;2023-12-29T17:35:49;100009.78;;;20.32;
62976;BME280;49071;0.000;0.000;2023-12-29T17:38:49;100017.56;;;20.24;
62976;BME280;49071;0.000;0.000;2023-12-29T17:41:49;100023.41;;;20.18;
62976;BME280;49071;0.000;0.000;2023-12-29T17:44:49;100028.41;;;20.12;
62976;BME280;49071;0.000;0.000;2023-12-29T17:47:49;100028.03;;;20.07;
62976;BME280;49071;0.000;0.000;2023-12-29T17:50:50;100021.59;;;20.01;
62976;BME280;49071;0.000;0.000;2023-12-29T17:53:50;100023.69;;;19.98;
62976;BME280;49071;0.000;0.000;2023-12-29T17:56:50;100023.97;;;19.95;
62976;BME280;49071;0.000;0.000;2023-12-29T17:59:50;100019.81;;;19.92;
62976;BME280;49071;0.000;0.000;2023-12-29T18:02:51;100018.59;;;19.87;
62976;BME280;49071;0.000;0.000;2023-12-29T18:05:51;100015.44;;;19.84;
62976;BME280;49071;0.000;0.000;2023-12-29T18:08:51;100007.31;;;19.77;
62976;BME280;49071;0.000;0.000;2023-12-29T18:11:55;100015.03;;;19.79;
62976;BME280;49071;0.000;0.000;2023-12-29T18:14:55;100033.13;;;19.82;
62976;BME280;49071;0.000;0.000;2023-12-29T18:17:55;100038.63;;;19.88;
62976;BME280;49071;0.000;0.000;2023-12-29T18:20:55;100045.78;;;19.95;
62976;BME280;49071;0.000;0.000;2023-12-29T18:23:55;100043.25;;;20.03;
62976;BME280;49071;0.000;0.000;2023-12-29T18:26:55;100039.75;;;20.12;